LEIB Airport Information

Runway Information
Runway 06 Length 9186 ft width 148 ft
Elevation 13 ft Threshold 0 ft Heading 62
Runway 24 Length 9186 ft Width 148 ft
Elevation 16 ft Threshold 0 ft Heading 242
Airport Frequencies
Type APP Name PALMA APP Frequency 118.125 MHZ
Type APP Name APP Frequency 119.8 MHZ
Type ATIS Name ATIS Frequency 117.8 MHZ
Type GND Name GND Frequency 121.8 MHZ
Type TWR Name TWR Frequency 118.5 MHZ
Airport Navaids
Type VOR-DME Name Ibiza Frequency 117800 KHZ
Type NDB Name Ibiza Frequency 394 KHZ
Airport Weather Information & NOTAM
ADDS - METARS form results

(1238 UTC 09 April 2020)
Data provider http://aviationweather.gov/metar/data/
 
METAR text: LEIB 091230Z 08011KT 050V110 CAVOK 19/13 Q1022 NOSIG
Conditions at: LEIB (IBIZA/ES CODOLA , ES) observed 1230 UTC 09 April 2020
Temperature: 19.0°C (66°F)
Dewpoint: 13.0°C (55°F) [RH = 68%]
Pressure (altimeter): 30.18 inches Hg (1022.0 mb)
Winds: from the E (80 degrees) at 13 MPH (11 knots; 5.7 m/s)
Visibility: 6 or more miles (10+ km)
Ceiling: ceiling and visibility are OK
Clouds: unknown
Weather: no significant weather observed at this time

METAR text: LEIB 091200Z 08010KT 050V110 CAVOK 18/13 Q1022 NOSIG
Conditions at: LEIB (IBIZA/ES CODOLA , ES) observed 1200 UTC 09 April 2020
Temperature: 18.0°C (64°F)
Dewpoint: 13.0°C (55°F) [RH = 73%]
Pressure (altimeter): 30.18 inches Hg (1022.0 mb)
Winds: from the E (80 degrees) at 12 MPH (10 knots; 5.1 m/s)
Visibility: 6 or more miles (10+ km)
Ceiling: ceiling and visibility are OK
Clouds: unknown
Weather: no significant weather observed at this time

Forecast for: LEIB (IBIZA/ES CODOLA , ES)
Text: TAF LEIB 090800Z 0909/1009 08010KT 9999 FEW020 TX20/0912Z TN10/1006Z
Forecast period: 0900 UTC 09 April 2020 to 0900 UTC 10 April 2020
Forecast type: FROM: standard forecast or significant change
Winds: from the E (80 degrees) at 12 MPH (10 knots; 5.1 m/s)
Visibility: 6 or more miles 10+ km)
Ceiling: at least 12,000 feet AGL
Clouds: few clouds at 2000 feet AGL
Weather: no significant weather forecast for this period
Text: TEMPO 0919/1008 05005KT
Forecast period: 1900 UTC 09 April 2020 to 0800 UTC 10 April 2020
Forecast type: TEMPORARY: The following changes expected for less than half the time period
Winds: from the NE (50 degrees) at 6 MPH (5 knots; 2.6 m/s)
Visibility: missing
Ceiling: unknown
Clouds: missing
Weather: no significant weather forecast for this period